Spicer, Minnesota
Current Conditions -  °F | °C
As of 2:35 AM on Monday 22 Dec 2014 (Local Time) from KBDH Reporting Station
Haze Haze  
Wind Chill: 28°   Ceiling: 200
Heat Index: 37°   Visibility: 1.2mi
Dew Point: 36°   Wind: 17mph
Humidity: 93%   Direction: 140°SE
Pressure: 29.59"   Gusts: NA
Location:  45.23°N, 94.94°W
Report Text: KBDH 220835Z AUTO 14015KT 1 1/4SM BR OVC002 03/02 A2959 RMK AO2
Loading
Personal Weather Stations






























Interactive Weather Map New forecast layout! Learn more

10-Day Weather Forecast

Advertisements
Track Severe Weather on mobile